sensor_id;sensor_type;location;lat;lon;timestamp;P1;durP1;ratioP1;P2;durP2;ratioP2
297;SDS011;133;49.626;9.680;2022-10-31T00:00:28;12.20;;;8.17;;
297;SDS011;133;49.626;9.680;2022-10-31T00:02:54;15.03;;;9.00;;
297;SDS011;133;49.626;9.680;2022-10-31T00:05:20;15.20;;;7.70;;
297;SDS011;133;49.626;9.680;2022-10-31T00:07:45;9.17;;;8.70;;
297;SDS011;133;49.626;9.680;2022-10-31T00:10:11;15.47;;;9.23;;
297;SDS011;133;49.626;9.680;2022-10-31T00:12:36;11.10;;;8.10;;
297;SDS011;133;49.626;9.680;2022-10-31T00:15:02;7.90;;;7.50;;
297;SDS011;133;49.626;9.680;2022-10-31T00:17:28;9.23;;;6.80;;
297;SDS011;133;49.626;9.680;2022-10-31T00:19:53;10.23;;;6.83;;
297;SDS011;133;49.626;9.680;2022-10-31T00:22:19;9.17;;;7.20;;
297;SDS011;133;49.626;9.680;2022-10-31T00:24:44;40.77;;;9.40;;
297;SDS011;133;49.626;9.680;2022-10-31T00:27:10;11.37;;;7.60;;
297;SDS011;133;49.626;9.680;2022-10-31T00:29:35;27.87;;;7.87;;
297;SDS011;133;49.626;9.680;2022-10-31T00:32:01;11.87;;;7.17;;
297;SDS011;133;49.626;9.680;2022-10-31T00:34:27;8.33;;;6.37;;
297;SDS011;133;49.626;9.680;2022-10-31T00:36:52;10.97;;;6.87;;
297;SDS011;133;49.626;9.680;2022-10-31T00:39:18;15.73;;;7.20;;
297;SDS011;133;49.626;9.680;2022-10-31T00:41:43;13.87;;;7.23;;
297;SDS011;133;49.626;9.680;2022-10-31T00:44:09;20.03;;;7.47;;
297;SDS011;133;49.626;9.680;2022-10-31T00:46:34;10.20;;;6.90;;
297;SDS011;133;49.626;9.680;2022-10-31T00:49:00;7.07;;;6.37;;
297;SDS011;133;49.626;9.680;2022-10-31T00:51:26;10.37;;;7.43;;
297;SDS011;133;49.626;9.680;2022-10-31T00:53:51;10.70;;;6.63;;
297;SDS011;133;49.626;9.680;2022-10-31T00:56:17;9.07;;;6.73;;
297;SDS011;133;49.626;9.680;2022-10-31T00:58:42;13.00;;;7.40;;
297;SDS011;133;49.626;9.680;2022-10-31T01:01:08;9.00;;;7.10;;
297;SDS011;133;49.626;9.680;2022-10-31T01:03:34;12.07;;;6.77;;
297;SDS011;133;49.626;9.680;2022-10-31T01:06:04;8.43;;;7.33;;
297;SDS011;133;49.626;9.680;2022-10-31T01:08:34;12.67;;;7.13;;
297;SDS011;133;49.626;9.680;2022-10-31T01:11:10;8.40;;;7.47;;
297;SDS011;133;49.626;9.680;2022-10-31T01:13:37;16.43;;;8.00;;
297;SDS011;133;49.626;9.680;2022-10-31T01:16:04;11.20;;;7.20;;
297;SDS011;133;49.626;9.680;2022-10-31T01:18:31;10.70;;;8.00;;
297;SDS011;133;49.626;9.680;2022-10-31T01:20:59;8.10;;;7.43;;
297;SDS011;133;49.626;9.680;2022-10-31T01:23:26;10.90;;;7.70;;
297;SDS011;133;49.626;9.680;2022-10-31T01:28:30;13.97;;;8.10;;
297;SDS011;133;49.626;9.680;2022-10-31T01:30:59;12.70;;;8.27;;
297;SDS011;133;49.626;9.680;2022-10-31T01:33:26;10.00;;;7.13;;
297;SDS011;133;49.626;9.680;2022-10-31T01:35:52;16.10;;;7.90;;
297;SDS011;133;49.626;9.680;2022-10-31T01:38:17;9.03;;;7.13;;
297;SDS011;133;49.626;9.680;2022-10-31T01:40:43;31.20;;;8.00;;
297;SDS011;133;49.626;9.680;2022-10-31T01:43:12;17.53;;;8.43;;
297;SDS011;133;49.626;9.680;2022-10-31T01:45:38;6.70;;;6.30;;
297;SDS011;133;49.626;9.680;2022-10-31T01:48:06;6.53;;;6.20;;
297;SDS011;133;49.626;9.680;2022-10-31T01:50:40;33.77;;;8.00;;
297;SDS011;133;49.626;9.680;2022-10-31T01:53:07;8.37;;;7.23;;
297;SDS011;133;49.626;9.680;2022-10-31T01:55:38;30.57;;;7.80;;
297;SDS011;133;49.626;9.680;2022-10-31T01:58:09;8.60;;;7.00;;
297;SDS011;133;49.626;9.680;2022-10-31T02:00:41;71.47;;;10.10;;
297;SDS011;133;49.626;9.680;2022-10-31T02:03:10;109.13;;;10.83;;
297;SDS011;133;49.626;9.680;2022-10-31T02:05:36;6.90;;;6.17;;
297;SDS011;133;49.626;9.680;2022-10-31T02:10:50;9.50;;;6.87;;
297;SDS011;133;49.626;9.680;2022-10-31T02:13:16;52.23;;;9.20;;
297;SDS011;133;49.626;9.680;2022-10-31T02:15:44;8.77;;;6.23;;
297;SDS011;133;49.626;9.680;2022-10-31T02:18:12;12.60;;;6.70;;
297;SDS011;133;49.626;9.680;2022-10-31T02:20:42;6.63;;;6.23;;
297;SDS011;133;49.626;9.680;2022-10-31T02:32:28;6.83;;;6.00;;
297;SDS011;133;49.626;9.680;2022-10-31T02:40:15;6.53;;;5.90;;
297;SDS011;133;49.626;9.680;2022-10-31T02:45:52;16.80;;;6.80;;
297;SDS011;133;49.626;9.680;2022-10-31T02:48:31;14.47;;;5.90;;
297;SDS011;133;49.626;9.680;2022-10-31T02:51:00;33.80;;;7.37;;
297;SDS011;133;49.626;9.680;2022-10-31T02:53:35;41.30;;;8.10;;
297;SDS011;133;49.626;9.680;2022-10-31T02:56:04;28.93;;;7.13;;
297;SDS011;133;49.626;9.680;2022-10-31T02:58:38;28.27;;;7.37;;
297;SDS011;133;49.626;9.680;2022-10-31T03:06:30;40.93;;;7.73;;
297;SDS011;133;49.626;9.680;2022-10-31T03:09:15;72.10;;;9.03;;
297;SDS011;133;49.626;9.680;2022-10-31T03:14:17;12.57;;;6.30;;
297;SDS011;133;49.626;9.680;2022-10-31T03:16:51;8.87;;;6.67;;
297;SDS011;133;49.626;9.680;2022-10-31T03:21:57;18.97;;;7.33;;
297;SDS011;133;49.626;9.680;2022-10-31T03:24:29;87.63;;;9.50;;
297;SDS011;133;49.626;9.680;2022-10-31T03:26:59;51.70;;;8.77;;
297;SDS011;133;49.626;9.680;2022-10-31T03:29:27;20.20;;;7.33;;
297;SDS011;133;49.626;9.680;2022-10-31T03:31:57;20.00;;;6.87;;
297;SDS011;133;49.626;9.680;2022-10-31T03:34:25;7.03;;;5.20;;
297;SDS011;133;49.626;9.680;2022-10-31T03:36:55;53.40;;;7.70;;
297;SDS011;133;49.626;9.680;2022-10-31T03:39:24;17.97;;;6.40;;
297;SDS011;133;49.626;9.680;2022-10-31T03:41:57;8.00;;;5.90;;
297;SDS011;133;49.626;9.680;2022-10-31T03:44:29;15.40;;;5.70;;
297;SDS011;133;49.626;9.680;2022-10-31T03:46:57;37.53;;;6.80;;
297;SDS011;133;49.626;9.680;2022-10-31T03:49:24;5.87;;;5.30;;
297;SDS011;133;49.626;9.680;2022-10-31T03:52:01;8.63;;;5.93;;
297;SDS011;133;49.626;9.680;2022-10-31T03:54:45;5.63;;;5.33;;
297;SDS011;133;49.626;9.680;2022-10-31T03:57:16;7.13;;;5.13;;
297;SDS011;133;49.626;9.680;2022-10-31T03:59:59;5.43;;;5.13;;
297;SDS011;133;49.626;9.680;2022-10-31T04:02:29;10.20;;;6.37;;
297;SDS011;133;49.626;9.680;2022-10-31T04:04:57;15.90;;;6.47;;
297;SDS011;133;49.626;9.680;2022-10-31T04:07:25;13.20;;;6.40;;
297;SDS011;133;49.626;9.680;2022-10-31T04:09:54;21.87;;;6.37;;
297;SDS011;133;49.626;9.680;2022-10-31T04:12:22;15.47;;;6.00;;
297;SDS011;133;49.626;9.680;2022-10-31T04:14:50;5.73;;;5.43;;
297;SDS011;133;49.626;9.680;2022-10-31T04:17:18;7.23;;;5.73;;
297;SDS011;133;49.626;9.680;2022-10-31T04:19:47;16.87;;;6.60;;
297;SDS011;133;49.626;9.680;2022-10-31T04:22:12;8.13;;;5.80;;
297;SDS011;133;49.626;9.680;2022-10-31T04:24:39;38.10;;;7.07;;
297;SDS011;133;49.626;9.680;2022-10-31T04:27:05;11.23;;;6.37;;
297;SDS011;133;49.626;9.680;2022-10-31T04:29:31;25.43;;;7.77;;
297;SDS011;133;49.626;9.680;2022-10-31T04:31:57;33.67;;;7.77;;
297;SDS011;133;49.626;9.680;2022-10-31T04:34:22;8.20;;;5.97;;
297;SDS011;133;49.626;9.680;2022-10-31T04:36:48;42.27;;;7.77;;
297;SDS011;133;49.626;9.680;2022-10-31T04:39:13;11.57;;;6.03;;
297;SDS011;133;49.626;9.680;2022-10-31T04:41:39;42.40;;;8.20;;
297;SDS011;133;49.626;9.680;2022-10-31T04:44:05;88.47;;;8.90;;
297;SDS011;133;49.626;9.680;2022-10-31T04:46:31;42.70;;;7.30;;
297;SDS011;133;49.626;9.680;2022-10-31T04:48:56;58.70;;;8.73;;
297;SDS011;133;49.626;9.680;2022-10-31T04:51:22;39.47;;;8.07;;
297;SDS011;133;49.626;9.680;2022-10-31T04:53:47;5.67;;;5.10;;
297;SDS011;133;49.626;9.680;2022-10-31T04:56:13;34.93;;;7.13;;
297;SDS011;133;49.626;9.680;2022-10-31T04:58:39;7.33;;;5.00;;
297;SDS011;133;49.626;9.680;2022-10-31T05:01:04;8.50;;;5.63;;
297;SDS011;133;49.626;9.680;2022-10-31T05:03:30;14.17;;;5.83;;
297;SDS011;133;49.626;9.680;2022-10-31T05:05:56;30.00;;;6.77;;
297;SDS011;133;49.626;9.680;2022-10-31T05:08:21;12.00;;;5.53;;
297;SDS011;133;49.626;9.680;2022-10-31T05:10:47;35.03;;;7.03;;
297;SDS011;133;49.626;9.680;2022-10-31T05:13:12;37.40;;;6.83;;
297;SDS011;133;49.626;9.680;2022-10-31T05:15:39;5.97;;;5.37;;
297;SDS011;133;49.626;9.680;2022-10-31T05:18:05;5.63;;;5.27;;
297;SDS011;133;49.626;9.680;2022-10-31T05:20:31;7.50;;;6.00;;
297;SDS011;133;49.626;9.680;2022-10-31T05:22:58;11.90;;;6.23;;
297;SDS011;133;49.626;9.680;2022-10-31T05:25:25;7.67;;;5.50;;
297;SDS011;133;49.626;9.680;2022-10-31T05:27:52;8.23;;;4.90;;
297;SDS011;133;49.626;9.680;2022-10-31T05:30:20;116.83;;;9.40;;
297;SDS011;133;49.626;9.680;2022-10-31T05:32:49;14.33;;;5.60;;
297;SDS011;133;49.626;9.680;2022-10-31T05:35:16;15.13;;;6.23;;
297;SDS011;133;49.626;9.680;2022-10-31T05:37:44;8.33;;;5.33;;
297;SDS011;133;49.626;9.680;2022-10-31T05:40:10;5.30;;;5.00;;
297;SDS011;133;49.626;9.680;2022-10-31T05:42:38;46.83;;;7.30;;
297;SDS011;133;49.626;9.680;2022-10-31T05:45:05;17.53;;;6.70;;
297;SDS011;133;49.626;9.680;2022-10-31T05:47:31;5.67;;;5.00;;
297;SDS011;133;49.626;9.680;2022-10-31T05:49:57;11.00;;;5.67;;
297;SDS011;133;49.626;9.680;2022-10-31T05:52:23;5.83;;;5.53;;
297;SDS011;133;49.626;9.680;2022-10-31T05:54:48;4.83;;;4.53;;
297;SDS011;133;49.626;9.680;2022-10-31T05:57:14;5.23;;;4.93;;
297;SDS011;133;49.626;9.680;2022-10-31T05:59:39;5.50;;;4.50;;
297;SDS011;133;49.626;9.680;2022-10-31T06:02:05;13.63;;;7.80;;
297;SDS011;133;49.626;9.680;2022-10-31T06:04:30;8.00;;;5.90;;
297;SDS011;133;49.626;9.680;2022-10-31T06:06:56;9.47;;;6.00;;
297;SDS011;133;49.626;9.680;2022-10-31T06:09:22;7.47;;;5.17;;
297;SDS011;133;49.626;9.680;2022-10-31T06:11:47;23.63;;;7.20;;
297;SDS011;133;49.626;9.680;2022-10-31T06:14:13;22.20;;;7.60;;
297;SDS011;133;49.626;9.680;2022-10-31T06:16:40;18.13;;;8.90;;
297;SDS011;133;49.626;9.680;2022-10-31T06:19:06;49.23;;;10.53;;
297;SDS011;133;49.626;9.680;2022-10-31T06:21:31;29.03;;;8.97;;
297;SDS011;133;49.626;9.680;2022-10-31T06:23:57;17.80;;;6.77;;
297;SDS011;133;49.626;9.680;2022-10-31T06:26:22;25.33;;;6.60;;
297;SDS011;133;49.626;9.680;2022-10-31T06:28:48;8.57;;;5.70;;
297;SDS011;133;49.626;9.680;2022-10-31T06:31:14;27.53;;;7.00;;
297;SDS011;133;49.626;9.680;2022-10-31T06:33:42;18.40;;;6.47;;
297;SDS011;133;49.626;9.680;2022-10-31T06:36:08;8.63;;;5.77;;
297;SDS011;133;49.626;9.680;2022-10-31T06:38:34;18.40;;;5.90;;
297;SDS011;133;49.626;9.680;2022-10-31T06:41:04;8.70;;;5.80;;
297;SDS011;133;49.626;9.680;2022-10-31T06:43:30;53.13;;;7.07;;
297;SDS011;133;49.626;9.680;2022-10-31T06:45:57;49.77;;;7.37;;
297;SDS011;133;49.626;9.680;2022-10-31T06:48:26;41.47;;;6.33;;
297;SDS011;133;49.626;9.680;2022-10-31T06:50:52;20.63;;;6.63;;
297;SDS011;133;49.626;9.680;2022-10-31T06:53:17;18.20;;;5.33;;
297;SDS011;133;49.626;9.680;2022-10-31T06:55:43;6.73;;;4.50;;
297;SDS011;133;49.626;9.680;2022-10-31T06:58:09;17.60;;;5.50;;
297;SDS011;133;49.626;9.680;2022-10-31T07:00:35;14.23;;;5.20;;
297;SDS011;133;49.626;9.680;2022-10-31T07:03:05;5.67;;;5.10;;
297;SDS011;133;49.626;9.680;2022-10-31T07:05:34;4.30;;;4.00;;
297;SDS011;133;49.626;9.680;2022-10-31T07:08:00;5.60;;;4.50;;
297;SDS011;133;49.626;9.680;2022-10-31T07:10:28;4.67;;;4.37;;
297;SDS011;133;49.626;9.680;2022-10-31T07:12:56;72.17;;;7.23;;
297;SDS011;133;49.626;9.680;2022-10-31T07:15:23;28.00;;;4.97;;
297;SDS011;133;49.626;9.680;2022-10-31T07:17:52;3.73;;;3.53;;
297;SDS011;133;49.626;9.680;2022-10-31T07:20:19;32.87;;;5.77;;
297;SDS011;133;49.626;9.680;2022-10-31T07:22:45;3.87;;;3.67;;
297;SDS011;133;49.626;9.680;2022-10-31T07:25:10;5.30;;;4.80;;
297;SDS011;133;49.626;9.680;2022-10-31T07:27:40;19.37;;;5.47;;
297;SDS011;133;49.626;9.680;2022-10-31T07:30:07;4.53;;;4.23;;
297;SDS011;133;49.626;9.680;2022-10-31T07:32:42;12.70;;;5.03;;
297;SDS011;133;49.626;9.680;2022-10-31T07:35:13;5.57;;;3.73;;
297;SDS011;133;49.626;9.680;2022-10-31T07:37:40;6.77;;;4.70;;
297;SDS011;133;49.626;9.680;2022-10-31T07:40:07;6.30;;;4.37;;
297;SDS011;133;49.626;9.680;2022-10-31T07:42:40;12.03;;;4.67;;
297;SDS011;133;49.626;9.680;2022-10-31T07:45:08;74.87;;;6.53;;
297;SDS011;133;49.626;9.680;2022-10-31T07:47:46;18.63;;;5.27;;
297;SDS011;133;49.626;9.680;2022-10-31T07:50:19;4.67;;;4.37;;
297;SDS011;133;49.626;9.680;2022-10-31T07:52:57;31.13;;;5.90;;
297;SDS011;133;49.626;9.680;2022-10-31T07:55:24;34.70;;;6.20;;
297;SDS011;133;49.626;9.680;2022-10-31T07:57:56;6.30;;;4.73;;
297;SDS011;133;49.626;9.680;2022-10-31T08:00:23;5.67;;;5.40;;
297;SDS011;133;49.626;9.680;2022-10-31T08:05:28;162.40;;;17.97;;
297;SDS011;133;49.626;9.680;2022-10-31T08:07:54;82.97;;;8.60;;
297;SDS011;133;49.626;9.680;2022-10-31T08:10:20;20.00;;;5.83;;
297;SDS011;133;49.626;9.680;2022-10-31T08:12:46;14.63;;;5.60;;
297;SDS011;133;49.626;9.680;2022-10-31T08:15:12;31.60;;;7.40;;
297;SDS011;133;49.626;9.680;2022-10-31T08:17:38;36.30;;;7.50;;
297;SDS011;133;49.626;9.680;2022-10-31T08:20:04;58.30;;;7.50;;
297;SDS011;133;49.626;9.680;2022-10-31T08:22:30;4.43;;;4.03;;
297;SDS011;133;49.626;9.680;2022-10-31T08:24:56;5.20;;;4.90;;
297;SDS011;133;49.626;9.680;2022-10-31T08:27:22;5.10;;;4.80;;
297;SDS011;133;49.626;9.680;2022-10-31T08:29:48;92.93;;;8.73;;
297;SDS011;133;49.626;9.680;2022-10-31T08:32:13;88.73;;;11.00;;
297;SDS011;133;49.626;9.680;2022-10-31T08:34:39;34.33;;;6.80;;
297;SDS011;133;49.626;9.680;2022-10-31T08:37:04;7.20;;;6.13;;
297;SDS011;133;49.626;9.680;2022-10-31T08:39:30;5.60;;;5.33;;
297;SDS011;133;49.626;9.680;2022-10-31T08:41:55;5.93;;;5.70;;
297;SDS011;133;49.626;9.680;2022-10-31T08:44:21;4.70;;;4.40;;
297;SDS011;133;49.626;9.680;2022-10-31T08:46:47;5.20;;;4.90;;
297;SDS011;133;49.626;9.680;2022-10-31T08:49:12;34.87;;;7.50;;
297;SDS011;133;49.626;9.680;2022-10-31T08:51:38;25.27;;;7.77;;
297;SDS011;133;49.626;9.680;2022-10-31T08:54:04;5.53;;;5.20;;
297;SDS011;133;49.626;9.680;2022-10-31T08:56:29;11.47;;;5.90;;
297;SDS011;133;49.626;9.680;2022-10-31T08:58:55;12.53;;;6.97;;
297;SDS011;133;49.626;9.680;2022-10-31T09:01:21;7.37;;;5.70;;
297;SDS011;133;49.626;9.680;2022-10-31T09:03:46;6.83;;;6.50;;
297;SDS011;133;49.626;9.680;2022-10-31T09:06:12;15.57;;;8.17;;
297;SDS011;133;49.626;9.680;2022-10-31T09:08:37;12.27;;;8.30;;
297;SDS011;133;49.626;9.680;2022-10-31T09:11:03;10.50;;;7.07;;
297;SDS011;133;49.626;9.680;2022-10-31T09:13:29;7.10;;;6.70;;
297;SDS011;133;49.626;9.680;2022-10-31T09:15:55;6.67;;;6.27;;
297;SDS011;133;49.626;9.680;2022-10-31T09:18:23;6.77;;;6.37;;
297;SDS011;133;49.626;9.680;2022-10-31T09:20:49;6.13;;;5.83;;
297;SDS011;133;49.626;9.680;2022-10-31T09:23:17;9.27;;;6.90;;
297;SDS011;133;49.626;9.680;2022-10-31T09:25:44;8.73;;;6.70;;
297;SDS011;133;49.626;9.680;2022-10-31T09:28:11;17.80;;;7.93;;
297;SDS011;133;49.626;9.680;2022-10-31T09:30:38;6.60;;;6.07;;
297;SDS011;133;49.626;9.680;2022-10-31T09:33:05;8.70;;;6.33;;
297;SDS011;133;49.626;9.680;2022-10-31T09:35:34;9.60;;;7.20;;
297;SDS011;133;49.626;9.680;2022-10-31T09:38:00;7.60;;;6.70;;
297;SDS011;133;49.626;9.680;2022-10-31T09:45:31;15.30;;;7.77;;
297;SDS011;133;49.626;9.680;2022-10-31T09:48:24;6.93;;;6.30;;
297;SDS011;133;49.626;9.680;2022-10-31T09:51:34;17.53;;;8.47;;
297;SDS011;133;49.626;9.680;2022-10-31T09:56:44;18.23;;;7.30;;
297;SDS011;133;49.626;9.680;2022-10-31T09:59:20;52.10;;;9.93;;
297;SDS011;133;49.626;9.680;2022-10-31T10:01:54;26.17;;;9.43;;
297;SDS011;133;49.626;9.680;2022-10-31T10:05:17;7.87;;;6.60;;
297;SDS011;133;49.626;9.680;2022-10-31T10:16:43;24.03;;;11.00;;
297;SDS011;133;49.626;9.680;2022-10-31T10:32:30;11.80;;;8.33;;
297;SDS011;133;49.626;9.680;2022-10-31T10:35:19;8.63;;;7.87;;
297;SDS011;133;49.626;9.680;2022-10-31T10:37:46;10.00;;;9.00;;
297;SDS011;133;49.626;9.680;2022-10-31T10:40:18;12.90;;;8.80;;
297;SDS011;133;49.626;9.680;2022-10-31T10:43:17;11.47;;;8.87;;
297;SDS011;133;49.626;9.680;2022-10-31T10:45:50;18.60;;;10.23;;
297;SDS011;133;49.626;9.680;2022-10-31T10:48:57;9.57;;;8.70;;
297;SDS011;133;49.626;9.680;2022-10-31T11:02:46;12.57;;;9.87;;
297;SDS011;133;49.626;9.680;2022-10-31T11:05:22;15.60;;;11.03;;
297;SDS011;133;49.626;9.680;2022-10-31T11:08:07;24.47;;;14.30;;
297;SDS011;133;49.626;9.680;2022-10-31T11:10:33;12.07;;;10.53;;
297;SDS011;133;49.626;9.680;2022-10-31T11:13:17;12.90;;;11.20;;
297;SDS011;133;49.626;9.680;2022-10-31T11:18:32;12.83;;;10.40;;
297;SDS011;133;49.626;9.680;2022-10-31T11:21:20;10.80;;;9.83;;
297;SDS011;133;49.626;9.680;2022-10-31T11:23:50;14.07;;;11.50;;
297;SDS011;133;49.626;9.680;2022-10-31T11:26:47;14.70;;;11.80;;
297;SDS011;133;49.626;9.680;2022-10-31T11:29:20;13.90;;;12.07;;
297;SDS011;133;49.626;9.680;2022-10-31T11:31:50;13.67;;;11.53;;
297;SDS011;133;49.626;9.680;2022-10-31T11:37:15;16.30;;;11.23;;
297;SDS011;133;49.626;9.680;2022-10-31T11:39:44;11.43;;;9.57;;
297;SDS011;133;49.626;9.680;2022-10-31T11:42:18;11.73;;;10.00;;
297;SDS011;133;49.626;9.680;2022-10-31T11:44:46;12.57;;;10.27;;
297;SDS011;133;49.626;9.680;2022-10-31T11:47:13;15.03;;;10.93;;
297;SDS011;133;49.626;9.680;2022-10-31T11:49:42;11.70;;;10.17;;
297;SDS011;133;49.626;9.680;2022-10-31T11:52:15;12.17;;;10.30;;
297;SDS011;133;49.626;9.680;2022-10-31T11:54:54;12.10;;;10.30;;
297;SDS011;133;49.626;9.680;2022-10-31T11:59:57;13.27;;;11.20;;
297;SDS011;133;49.626;9.680;2022-10-31T12:02:24;14.70;;;10.43;;
297;SDS011;133;49.626;9.680;2022-10-31T12:04:52;12.30;;;10.20;;
297;SDS011;133;49.626;9.680;2022-10-31T12:07:31;12.97;;;11.97;;
297;SDS011;133;49.626;9.680;2022-10-31T12:09:57;16.23;;;13.77;;
297;SDS011;133;49.626;9.680;2022-10-31T12:12:45;14.97;;;12.57;;
297;SDS011;133;49.626;9.680;2022-10-31T12:31:36;13.53;;;12.10;;
297;SDS011;133;49.626;9.680;2022-10-31T12:43:01;15.47;;;11.60;;
297;SDS011;133;49.626;9.680;2022-10-31T12:45:54;14.43;;;12.30;;
297;SDS011;133;49.626;9.680;2022-10-31T12:51:20;13.23;;;11.03;;
297;SDS011;133;49.626;9.680;2022-10-31T12:54:10;15.03;;;13.83;;
297;SDS011;133;49.626;9.680;2022-10-31T12:57:00;17.80;;;14.37;;
297;SDS011;133;49.626;9.680;2022-10-31T12:59:41;20.10;;;16.10;;
297;SDS011;133;49.626;9.680;2022-10-31T13:02:27;19.70;;;15.13;;
297;SDS011;133;49.626;9.680;2022-10-31T13:05:02;17.57;;;15.00;;
297;SDS011;133;49.626;9.680;2022-10-31T13:07:34;17.20;;;13.17;;
297;SDS011;133;49.626;9.680;2022-10-31T13:10:22;18.40;;;14.40;;
297;SDS011;133;49.626;9.680;2022-10-31T13:12:55;23.80;;;16.70;;
297;SDS011;133;49.626;9.680;2022-10-31T13:15:27;19.87;;;15.60;;
297;SDS011;133;49.626;9.680;2022-10-31T13:17:59;16.97;;;12.97;;
297;SDS011;133;49.626;9.680;2022-10-31T13:23:20;15.93;;;13.97;;
297;SDS011;133;49.626;9.680;2022-10-31T13:25:59;21.93;;;16.40;;
297;SDS011;133;49.626;9.680;2022-10-31T13:28:43;20.17;;;14.37;;
297;SDS011;133;49.626;9.680;2022-10-31T13:31:12;22.47;;;17.13;;
297;SDS011;133;49.626;9.680;2022-10-31T13:36:16;20.53;;;18.37;;
297;SDS011;133;49.626;9.680;2022-10-31T13:44:24;18.30;;;15.90;;
297;SDS011;133;49.626;9.680;2022-10-31T13:46:56;20.17;;;15.97;;
297;SDS011;133;49.626;9.680;2022-10-31T13:51:51;18.03;;;14.80;;
297;SDS011;133;49.626;9.680;2022-10-31T13:54:23;19.93;;;15.10;;
297;SDS011;133;49.626;9.680;2022-10-31T13:56:59;30.43;;;20.40;;
297;SDS011;133;49.626;9.680;2022-10-31T13:59:26;22.40;;;17.50;;
297;SDS011;133;49.626;9.680;2022-10-31T14:01:57;18.53;;;14.60;;
297;SDS011;133;49.626;9.680;2022-10-31T14:04:38;17.80;;;14.13;;
297;SDS011;133;49.626;9.680;2022-10-31T14:07:12;19.83;;;14.43;;
297;SDS011;133;49.626;9.680;2022-10-31T14:09:53;16.70;;;13.83;;
297;SDS011;133;49.626;9.680;2022-10-31T14:15:19;18.80;;;14.37;;
297;SDS011;133;49.626;9.680;2022-10-31T14:17:46;16.40;;;13.33;;
297;SDS011;133;49.626;9.680;2022-10-31T14:22:56;21.30;;;16.90;;
297;SDS011;133;49.626;9.680;2022-10-31T14:27:50;16.17;;;13.37;;
297;SDS011;133;49.626;9.680;2022-10-31T14:30:18;15.57;;;13.67;;
297;SDS011;133;49.626;9.680;2022-10-31T14:33:08;19.43;;;16.17;;
297;SDS011;133;49.626;9.680;2022-10-31T14:35:53;15.90;;;13.40;;
297;SDS011;133;49.626;9.680;2022-10-31T14:38:29;14.87;;;12.20;;
297;SDS011;133;49.626;9.680;2022-10-31T14:52:32;16.60;;;14.20;;
297;SDS011;133;49.626;9.680;2022-10-31T14:55:02;16.30;;;14.20;;
297;SDS011;133;49.626;9.680;2022-10-31T14:57:37;17.60;;;13.60;;
297;SDS011;133;49.626;9.680;2022-10-31T15:00:05;16.57;;;13.13;;
297;SDS011;133;49.626;9.680;2022-10-31T15:05:26;18.63;;;14.07;;
297;SDS011;133;49.626;9.680;2022-10-31T15:07:56;17.37;;;14.70;;
297;SDS011;133;49.626;9.680;2022-10-31T15:10:24;16.10;;;14.00;;
297;SDS011;133;49.626;9.680;2022-10-31T15:12:50;21.27;;;18.17;;
297;SDS011;133;49.626;9.680;2022-10-31T15:15:21;16.90;;;13.67;;
297;SDS011;133;49.626;9.680;2022-10-31T15:17:51;17.20;;;14.00;;
297;SDS011;133;49.626;9.680;2022-10-31T15:20:29;17.87;;;14.63;;
297;SDS011;133;49.626;9.680;2022-10-31T15:22:56;20.07;;;15.53;;
297;SDS011;133;49.626;9.680;2022-10-31T15:25:25;16.60;;;15.03;;
297;SDS011;133;49.626;9.680;2022-10-31T15:27:53;18.90;;;14.60;;
297;SDS011;133;49.626;9.680;2022-10-31T15:30:23;18.97;;;15.30;;
297;SDS011;133;49.626;9.680;2022-10-31T15:32:50;23.30;;;15.00;;
297;SDS011;133;49.626;9.680;2022-10-31T15:35:20;21.40;;;16.40;;
297;SDS011;133;49.626;9.680;2022-10-31T15:37:49;19.43;;;17.10;;
297;SDS011;133;49.626;9.680;2022-10-31T15:40:17;23.60;;;16.50;;
297;SDS011;133;49.626;9.680;2022-10-31T15:42:46;18.07;;;15.70;;
297;SDS011;133;49.626;9.680;2022-10-31T15:45:32;18.10;;;14.53;;
297;SDS011;133;49.626;9.680;2022-10-31T15:48:01;21.03;;;17.77;;
297;SDS011;133;49.626;9.680;2022-10-31T15:50:34;19.60;;;15.90;;
297;SDS011;133;49.626;9.680;2022-10-31T15:53:03;21.33;;;16.37;;
297;SDS011;133;49.626;9.680;2022-10-31T15:55:31;21.03;;;17.33;;
297;SDS011;133;49.626;9.680;2022-10-31T15:58:02;22.30;;;16.77;;
297;SDS011;133;49.626;9.680;2022-10-31T16:00:36;22.37;;;17.83;;
297;SDS011;133;49.626;9.680;2022-10-31T16:05:35;21.20;;;16.60;;
297;SDS011;133;49.626;9.680;2022-10-31T16:11:00;20.80;;;17.40;;
297;SDS011;133;49.626;9.680;2022-10-31T16:13:40;19.77;;;16.30;;
297;SDS011;133;49.626;9.680;2022-10-31T16:16:27;22.37;;;17.70;;
297;SDS011;133;49.626;9.680;2022-10-31T16:18:55;26.00;;;19.90;;
297;SDS011;133;49.626;9.680;2022-10-31T16:21:27;23.37;;;19.10;;
297;SDS011;133;49.626;9.680;2022-10-31T16:24:11;29.50;;;20.20;;
297;SDS011;133;49.626;9.680;2022-10-31T16:26:51;26.03;;;21.00;;
297;SDS011;133;49.626;9.680;2022-10-31T16:37:43;39.43;;;25.90;;
297;SDS011;133;49.626;9.680;2022-10-31T16:40:10;39.20;;;25.80;;
297;SDS011;133;49.626;9.680;2022-10-31T16:42:39;32.70;;;22.80;;
297;SDS011;133;49.626;9.680;2022-10-31T16:45:19;28.30;;;20.27;;
297;SDS011;133;49.626;9.680;2022-10-31T16:47:49;27.50;;;20.57;;
297;SDS011;133;49.626;9.680;2022-10-31T16:52:48;28.43;;;19.50;;
297;SDS011;133;49.626;9.680;2022-10-31T16:55:14;83.23;;;23.03;;
297;SDS011;133;49.626;9.680;2022-10-31T16:57:48;31.50;;;22.23;;
297;SDS011;133;49.626;9.680;2022-10-31T17:00:17;85.07;;;28.37;;
297;SDS011;133;49.626;9.680;2022-10-31T17:02:45;38.23;;;24.20;;
297;SDS011;133;49.626;9.680;2022-10-31T17:05:14;28.83;;;21.70;;
297;SDS011;133;49.626;9.680;2022-10-31T17:07:41;29.67;;;21.07;;
297;SDS011;133;49.626;9.680;2022-10-31T17:10:07;30.00;;;20.87;;
297;SDS011;133;49.626;9.680;2022-10-31T17:12:34;34.67;;;23.17;;
297;SDS011;133;49.626;9.680;2022-10-31T17:15:00;33.10;;;23.40;;
297;SDS011;133;49.626;9.680;2022-10-31T17:17:26;27.77;;;20.57;;
297;SDS011;133;49.626;9.680;2022-10-31T17:19:55;26.00;;;19.90;;
297;SDS011;133;49.626;9.680;2022-10-31T17:22:20;33.90;;;21.73;;
297;SDS011;133;49.626;9.680;2022-10-31T17:24:46;27.90;;;20.40;;
297;SDS011;133;49.626;9.680;2022-10-31T17:27:12;23.23;;;17.60;;
297;SDS011;133;49.626;9.680;2022-10-31T17:29:37;34.50;;;23.07;;
297;SDS011;133;49.626;9.680;2022-10-31T17:32:03;33.20;;;21.37;;
297;SDS011;133;49.626;9.680;2022-10-31T17:34:29;27.50;;;18.57;;
297;SDS011;133;49.626;9.680;2022-10-31T17:36:55;22.33;;;16.50;;
297;SDS011;133;49.626;9.680;2022-10-31T17:39:23;20.70;;;15.80;;
297;SDS011;133;49.626;9.680;2022-10-31T17:41:50;27.13;;;17.90;;
297;SDS011;133;49.626;9.680;2022-10-31T17:44:16;19.17;;;15.10;;
297;SDS011;133;49.626;9.680;2022-10-31T17:46:42;19.90;;;14.87;;
297;SDS011;133;49.626;9.680;2022-10-31T17:49:09;40.40;;;26.20;;
297;SDS011;133;49.626;9.680;2022-10-31T17:51:36;22.57;;;18.17;;
297;SDS011;133;49.626;9.680;2022-10-31T17:54:02;27.53;;;17.87;;
297;SDS011;133;49.626;9.680;2022-10-31T17:56:30;19.70;;;15.53;;
297;SDS011;133;49.626;9.680;2022-10-31T17:58:55;30.43;;;18.13;;
297;SDS011;133;49.626;9.680;2022-10-31T18:01:22;20.57;;;15.53;;
297;SDS011;133;49.626;9.680;2022-10-31T18:03:47;23.50;;;16.20;;
297;SDS011;133;49.626;9.680;2022-10-31T18:06:13;21.97;;;16.50;;
297;SDS011;133;49.626;9.680;2022-10-31T18:08:41;19.30;;;15.27;;
297;SDS011;133;49.626;9.680;2022-10-31T18:11:08;23.23;;;16.30;;
297;SDS011;133;49.626;9.680;2022-10-31T18:13:37;22.20;;;15.33;;
297;SDS011;133;49.626;9.680;2022-10-31T18:16:07;17.47;;;14.80;;
297;SDS011;133;49.626;9.680;2022-10-31T18:18:33;22.23;;;15.97;;
297;SDS011;133;49.626;9.680;2022-10-31T18:20:59;19.60;;;14.80;;
297;SDS011;133;49.626;9.680;2022-10-31T18:23:26;23.00;;;16.53;;
297;SDS011;133;49.626;9.680;2022-10-31T18:25:52;26.57;;;17.57;;
297;SDS011;133;49.626;9.680;2022-10-31T18:28:19;116.43;;;30.10;;